createdAt,value
2023-05-09T00:01:22.908Z,38.28
2023-05-09T00:03:51.537Z,33.58
2023-05-09T00:06:19.536Z,37.47
2023-05-09T00:08:46.527Z,35.35
2023-05-09T00:11:13.353Z,35.90
2023-05-09T00:13:41.881Z,38.75
2023-05-09T00:16:09.340Z,35.47
2023-05-09T00:18:37.549Z,32.78
2023-05-09T00:21:04.614Z,32.33
2023-05-09T00:23:31.494Z,35.97
2023-05-09T00:25:59.440Z,32.30
2023-05-09T00:28:26.371Z,35.75
2023-05-09T00:30:53.868Z,34.10
2023-05-09T00:33:21.196Z,36.90
2023-05-09T00:35:48.034Z,29.65
2023-05-09T00:38:15.279Z,33.90
2023-05-09T00:40:42.142Z,30.73
2023-05-09T00:43:09.043Z,31.00
2023-05-09T00:45:35.992Z,35.63
2023-05-09T00:48:03.473Z,31.40
2023-05-09T00:50:31.144Z,32.22
2023-05-09T00:52:58.985Z,29.80
2023-05-09T00:55:27.252Z,29.90
2023-05-09T00:57:54.335Z,32.60
2023-05-09T01:00:21.594Z,34.22
2023-05-09T01:02:53.088Z,27.48
2023-05-09T01:05:20.625Z,35.33
2023-05-09T01:08:26.495Z,30.33
2023-05-09T01:10:56.597Z,29.88
2023-05-09T01:13:44.427Z,31.00
2023-05-09T01:16:23.852Z,33.10
2023-05-09T01:19:17.246Z,33.88
2023-05-09T01:21:47.735Z,25.65
2023-05-09T01:24:42.441Z,31.92
2023-05-09T01:27:33.718Z,25.85
2023-05-09T01:30:03.843Z,25.35
2023-05-09T01:32:32.327Z,25.45
2023-05-09T01:35:05.215Z,27.65
2023-05-09T01:37:35.640Z,24.60
2023-05-09T01:40:12.409Z,23.33
2023-05-09T01:42:58.886Z,30.75
2023-05-09T01:45:27.533Z,25.65
2023-05-09T01:47:55.922Z,26.83
2023-05-09T01:50:24.364Z,23.67
2023-05-09T01:52:55.040Z,27.65
2023-05-09T01:55:25.680Z,28.10
2023-05-09T01:57:54.018Z,26.80
2023-05-09T02:00:22.121Z,30.42
2023-05-09T02:02:49.946Z,23.40
2023-05-09T02:05:18.313Z,22.05
2023-05-09T02:07:47.550Z,24.58
2023-05-09T02:10:16.184Z,25.98
2023-05-09T02:12:43.572Z,25.35
2023-05-09T02:15:10.744Z,26.63
2023-05-09T02:17:42.235Z,27.65
2023-05-09T02:20:13.433Z,23.70
2023-05-09T02:22:42.084Z,29.50
2023-05-09T02:25:15.387Z,26.02
2023-05-09T02:27:45.393Z,29.35
2023-05-09T02:30:17.225Z,30.20
2023-05-09T02:32:47.253Z,26.23
2023-05-09T02:35:16.493Z,27.48
2023-05-09T02:37:45.404Z,26.40
2023-05-09T02:40:13.430Z,30.75
2023-05-09T02:42:40.512Z,25.02
2023-05-09T02:45:10.585Z,34.53
2023-05-09T02:47:38.310Z,30.63
2023-05-09T02:50:06.162Z,30.50
2023-05-09T02:52:34.769Z,29.90
2023-05-09T02:55:03.475Z,30.45
2023-05-09T02:57:32.238Z,29.23
2023-05-09T02:59:59.191Z,29.15
2023-05-09T03:02:26.836Z,27.48
2023-05-09T03:04:54.031Z,30.55
2023-05-09T03:07:21.235Z,33.78
2023-05-09T03:09:48.031Z,29.60
2023-05-09T03:12:14.986Z,29.75
2023-05-09T03:14:41.841Z,32.20
2023-05-09T03:17:08.993Z,28.73
2023-05-09T03:19:36.751Z,33.10
2023-05-09T03:22:03.772Z,32.20
2023-05-09T03:24:34.379Z,32.80
2023-05-09T03:27:02.586Z,28.00
2023-05-09T03:29:29.420Z,30.55
2023-05-09T03:31:56.362Z,34.53
2023-05-09T03:34:23.362Z,30.77
2023-05-09T03:36:50.294Z,31.52
2023-05-09T03:39:17.110Z,37.67
2023-05-09T03:41:47.278Z,34.80
2023-05-09T03:44:14.228Z,36.03
2023-05-09T03:46:41.025Z,36.40
2023-05-09T03:49:08.440Z,34.83
2023-05-09T03:51:36.866Z,35.78
2023-05-09T03:54:08.184Z,31.10
2023-05-09T03:56:35.985Z,35.30
2023-05-09T03:59:03.184Z,33.35
2023-05-09T04:01:32.214Z,35.25
2023-05-09T04:04:00.698Z,37.13
2023-05-09T04:06:30.828Z,34.65
2023-05-09T04:08:58.794Z,34.63
2023-05-09T04:11:25.979Z,34.22
2023-05-09T04:13:54.896Z,36.75
2023-05-09T04:16:31.897Z,35.40
2023-05-09T04:18:59.628Z,33.38
2023-05-09T04:21:26.826Z,34.90
2023-05-09T04:23:56.784Z,36.72
2023-05-09T04:26:31.828Z,31.10
2023-05-09T04:28:59.599Z,33.38
2023-05-09T04:31:26.660Z,37.78
2023-05-09T04:33:54.005Z,40.58
2023-05-09T04:36:23.197Z,34.55
2023-05-09T04:38:50.552Z,34.65
2023-05-09T04:41:23.062Z,38.00
2023-05-09T04:43:50.064Z,33.83
2023-05-09T04:46:17.011Z,37.33
2023-05-09T04:48:44.226Z,35.00
2023-05-09T04:51:11.224Z,34.83
2023-05-09T04:53:38.274Z,37.10
2023-05-09T04:56:06.577Z,32.67
2023-05-09T04:58:38.386Z,30.98
2023-05-09T05:01:09.419Z,32.90
2023-05-09T05:03:36.677Z,37.25
2023-05-09T05:06:04.635Z,27.10
2023-05-09T05:08:32.525Z,32.22
2023-05-09T05:10:59.564Z,37.67
2023-05-09T05:13:26.609Z,34.78
2023-05-09T05:15:59.105Z,34.00
2023-05-09T05:18:26.264Z,35.88
2023-05-09T05:20:53.893Z,33.53
2023-05-09T05:23:21.326Z,32.17
2023-05-09T05:25:52.132Z,31.90
2023-05-09T05:28:19.987Z,33.67
2023-05-09T05:30:47.601Z,34.28
2023-05-09T05:33:14.460Z,39.60
2023-05-09T05:35:41.578Z,30.10
2023-05-09T05:38:08.697Z,32.55
2023-05-09T05:40:36.081Z,39.40
2023-05-09T05:43:04.880Z,35.28
2023-05-09T05:45:33.624Z,30.45
2023-05-09T05:48:03.354Z,32.00
2023-05-09T05:50:31.810Z,28.38
2023-05-09T05:52:58.795Z,31.48
2023-05-09T05:55:25.717Z,29.17
2023-05-09T05:57:52.808Z,27.10
2023-05-09T06:00:20.861Z,29.77
2023-05-09T06:02:54.521Z,28.10
2023-05-09T06:05:29.582Z,31.27
2023-05-09T06:07:56.527Z,26.15
2023-05-09T06:10:23.323Z,28.70
2023-05-09T06:12:50.231Z,30.30
2023-05-09T06:15:18.169Z,28.27
2023-05-09T06:17:48.614Z,31.73
2023-05-09T06:20:15.553Z,31.58
2023-05-09T06:22:42.537Z,25.88
2023-05-09T06:25:10.615Z,27.88
2023-05-09T06:27:38.617Z,26.33
2023-05-09T06:30:23.924Z,28.58
2023-05-09T06:32:53.527Z,27.13
2023-05-09T06:35:20.950Z,28.00
2023-05-09T06:37:48.992Z,28.27
2023-05-09T06:40:17.392Z,27.90
2023-05-09T06:42:45.541Z,30.40
2023-05-09T06:45:13.065Z,31.52
2023-05-09T06:47:40.338Z,29.73
2023-05-09T06:50:08.016Z,30.20
2023-05-09T06:52:34.910Z,28.27
2023-05-09T06:55:01.903Z,27.42
2023-05-09T06:57:28.982Z,27.27
2023-05-09T06:59:55.783Z,34.22
2023-05-09T07:02:22.762Z,30.48
2023-05-09T07:04:49.686Z,27.50
2023-05-09T07:07:16.692Z,28.45
2023-05-09T07:09:43.808Z,31.30
2023-05-09T07:12:10.698Z,30.65
2023-05-09T07:14:37.674Z,33.65
2023-05-09T07:17:21.051Z,31.95
2023-05-09T07:19:49.476Z,31.00
2023-05-09T07:22:16.658Z,30.23
2023-05-09T07:24:46.563Z,31.80
2023-05-09T07:27:13.605Z,26.45
2023-05-09T07:29:40.466Z,32.13
2023-05-09T07:32:07.470Z,33.65
2023-05-09T07:34:34.499Z,22.60
2023-05-09T07:37:01.471Z,24.17
2023-05-09T07:39:28.279Z,24.23
2023-05-09T07:41:55.206Z,26.75
2023-05-09T07:44:22.369Z,22.15
2023-05-09T07:46:49.253Z,22.13
2023-05-09T07:49:16.108Z,22.30
2023-05-09T07:51:43.074Z,20.58
2023-05-09T07:54:10.311Z,20.67
2023-05-09T07:56:37.353Z,19.10
2023-05-09T07:59:04.251Z,21.35
2023-05-09T08:01:31.167Z,18.10
2023-05-09T08:03:58.318Z,17.55
2023-05-09T08:06:26.310Z,14.85
2023-05-09T08:08:53.139Z,14.93
2023-05-09T08:11:20.139Z,14.35
2023-05-09T08:13:48.211Z,15.07
2023-05-09T08:16:17.397Z,15.77
2023-05-09T08:18:44.596Z,15.15
2023-05-09T08:21:11.956Z,13.00
2023-05-09T08:23:38.789Z,13.15
2023-05-09T08:26:05.737Z,12.95
2023-05-09T08:28:32.628Z,12.02
2023-05-09T08:30:59.600Z,12.65
2023-05-09T08:33:26.642Z,12.27
2023-05-09T08:35:54.092Z,11.02
2023-05-09T08:38:21.288Z,12.30
2023-05-09T08:40:48.534Z,10.90
2023-05-09T08:43:19.688Z,11.50
2023-05-09T08:45:50.843Z,8.98
2023-05-09T08:48:18.616Z,9.48
2023-05-09T08:50:45.725Z,8.43
2023-05-09T08:53:13.544Z,7.45
2023-05-09T08:55:40.840Z,7.60
2023-05-09T08:58:09.297Z,8.88
2023-05-09T09:00:38.824Z,6.93
2023-05-09T09:03:07.529Z,6.45
2023-05-09T09:05:41.903Z,5.93
2023-05-09T09:08:11.012Z,6.77
2023-05-09T09:10:42.759Z,6.15
2023-05-09T09:13:12.562Z,5.40
2023-05-09T09:15:41.678Z,6.43
2023-05-09T09:18:12.397Z,5.35
2023-05-09T09:20:48.413Z,7.28
2023-05-09T09:23:19.740Z,4.55
2023-05-09T09:25:47.663Z,4.50
2023-05-09T09:28:15.171Z,9.95
2023-05-09T09:30:47.599Z,4.82
2023-05-09T09:33:21.963Z,4.30
2023-05-09T09:35:50.553Z,4.40
2023-05-09T09:38:21.622Z,5.55
2023-05-09T09:40:52.516Z,7.15
2023-05-09T09:43:19.619Z,4.32
2023-05-09T09:45:54.617Z,4.10
2023-05-09T09:48:33.635Z,4.72
2023-05-09T09:51:18.950Z,5.65
2023-05-09T09:53:46.846Z,4.50
2023-05-09T09:56:13.856Z,4.13
2023-05-09T09:58:40.809Z,5.30
2023-05-09T10:01:16.764Z,5.97
2023-05-09T10:03:48.114Z,4.72
2023-05-09T10:06:16.473Z,4.07
2023-05-09T10:08:49.364Z,5.30
2023-05-09T10:11:16.448Z,4.30
2023-05-09T10:13:44.486Z,4.25
2023-05-09T10:16:12.857Z,3.75
2023-05-09T10:18:43.021Z,4.25
2023-05-09T10:21:13.514Z,3.95
2023-05-09T10:23:46.311Z,5.07
2023-05-09T10:26:16.498Z,3.13
2023-05-09T10:28:46.524Z,3.67
2023-05-09T10:31:22.726Z,3.38
2023-05-09T10:33:50.974Z,3.70
2023-05-09T10:36:23.313Z,3.55
2023-05-09T10:38:54.887Z,3.85
2023-05-09T10:41:22.759Z,3.00
2023-05-09T10:43:49.789Z,3.47
2023-05-09T10:46:17.529Z,3.25
2023-05-09T10:48:45.098Z,3.60
2023-05-09T10:51:13.231Z,4.53
2023-05-09T10:53:44.705Z,3.47
2023-05-09T10:56:29.231Z,4.15
2023-05-09T10:58:56.521Z,3.83
2023-05-09T11:01:35.639Z,3.13
2023-05-09T11:04:10.634Z,3.00
2023-05-09T11:06:50.811Z,3.92
2023-05-09T11:09:28.260Z,3.72
2023-05-09T11:11:56.895Z,6.90
2023-05-09T11:14:33.889Z,6.60
2023-05-09T11:17:04.258Z,8.23
2023-05-09T11:19:59.160Z,9.70
2023-05-09T11:22:28.572Z,11.32
2023-05-09T11:25:13.335Z,15.15
2023-05-09T11:27:45.183Z,18.87
2023-05-09T11:30:16.859Z,13.48
2023-05-09T11:32:51.524Z,14.20
2023-05-09T11:35:20.853Z,15.80
2023-05-09T11:37:50.754Z,14.85
2023-05-09T11:40:19.601Z,13.38
2023-05-09T11:42:49.958Z,14.63
2023-05-09T11:45:18.305Z,14.55
2023-05-09T11:47:46.845Z,11.65
2023-05-09T11:50:14.978Z,12.65
2023-05-09T11:52:42.204Z,12.43
2023-05-09T11:55:13.902Z,11.88
2023-05-09T11:57:43.106Z,13.25
2023-05-09T12:00:10.735Z,10.55
2023-05-09T12:02:38.700Z,11.57
2023-05-09T12:05:13.973Z,12.13
2023-05-09T12:10:12.915Z,8.02
2023-05-09T12:12:48.656Z,8.98
2023-05-09T12:15:16.908Z,9.45
2023-05-09T12:17:46.795Z,9.50
2023-05-09T12:20:14.533Z,10.70
2023-05-09T12:22:44.028Z,11.90
2023-05-09T12:25:12.095Z,12.52
2023-05-09T12:27:40.548Z,14.32
2023-05-09T12:30:10.529Z,14.18
2023-05-09T12:32:39.666Z,15.35
2023-05-09T12:35:11.223Z,11.02
2023-05-09T12:37:38.856Z,17.05
2023-05-09T12:40:08.627Z,11.45
2023-05-09T12:42:36.153Z,12.10
2023-05-09T12:45:04.226Z,12.55
2023-05-09T12:47:32.431Z,12.10
2023-05-09T12:50:03.681Z,14.20
2023-05-09T12:52:58.458Z,14.00
2023-05-09T12:55:29.475Z,10.07
2023-05-09T12:58:01.352Z,13.75
2023-05-09T13:00:28.483Z,10.43
2023-05-09T13:02:55.929Z,21.55
2023-05-09T13:05:24.391Z,10.98
2023-05-09T13:07:52.786Z,13.13
2023-05-09T13:10:26.061Z,14.70
2023-05-09T13:12:53.498Z,13.30
2023-05-09T13:15:22.686Z,10.85
2023-05-09T13:17:51.907Z,15.40
2023-05-09T13:20:19.552Z,10.98
2023-05-09T13:22:47.393Z,12.50
2023-05-09T13:25:14.435Z,13.93
2023-05-09T13:27:41.394Z,17.08
2023-05-09T13:30:08.585Z,16.35
2023-05-09T13:32:36.613Z,14.77
2023-05-09T13:35:06.748Z,16.27
2023-05-09T13:37:37.086Z,11.20
2023-05-09T13:40:04.749Z,13.55
2023-05-09T13:42:34.204Z,13.63
2023-05-09T13:45:01.320Z,16.23
2023-05-09T13:47:28.169Z,17.38
2023-05-09T13:49:55.186Z,12.95
2023-05-09T13:52:22.266Z,14.40
2023-05-09T13:54:49.176Z,11.85
2023-05-09T13:57:16.002Z,13.50
2023-05-09T13:59:43.475Z,13.80
2023-05-09T14:02:13.179Z,13.45
2023-05-09T14:04:41.449Z,12.82
2023-05-09T14:07:11.143Z,15.45
2023-05-09T14:09:40.122Z,15.05
2023-05-09T14:12:07.251Z,10.63
2023-05-09T14:14:34.311Z,12.95
2023-05-09T14:17:01.459Z,9.88
2023-05-09T14:19:28.774Z,11.98
2023-05-09T14:21:55.895Z,13.70
2023-05-09T14:24:22.809Z,15.68
2023-05-09T14:26:49.616Z,10.68
2023-05-09T14:29:17.304Z,10.57
2023-05-09T14:31:44.132Z,14.10
2023-05-09T14:34:11.463Z,10.05
2023-05-09T14:36:38.335Z,10.80
2023-05-09T14:39:06.322Z,12.68
2023-05-09T14:41:33.168Z,11.15
2023-05-09T14:44:00.051Z,12.23
2023-05-09T14:46:27.094Z,11.50
2023-05-09T14:48:54.401Z,10.05
2023-05-09T14:51:21.932Z,10.30
2023-05-09T14:53:48.738Z,7.70
2023-05-09T14:56:15.595Z,12.10
2023-05-09T14:58:42.511Z,8.40
2023-05-09T15:01:09.404Z,9.15
2023-05-09T15:03:36.546Z,8.93
2023-05-09T15:06:03.524Z,9.60
2023-05-09T15:08:30.532Z,8.23
2023-05-09T15:10:57.834Z,10.75
2023-05-09T15:13:25.065Z,12.32
2023-05-09T15:15:52.000Z,10.27
2023-05-09T15:18:20.139Z,9.15
2023-05-09T15:20:47.136Z,9.25
2023-05-09T15:23:14.069Z,8.32
2023-05-09T15:25:42.177Z,9.95
2023-05-09T15:28:09.140Z,9.63
2023-05-09T15:30:38.379Z,10.02
2023-05-09T15:33:05.578Z,9.45
2023-05-09T15:35:32.553Z,9.43
2023-05-09T15:37:59.986Z,9.23
2023-05-09T15:40:27.911Z,9.98
2023-05-09T15:42:54.957Z,8.85
2023-05-09T15:45:21.787Z,9.48
2023-05-09T15:47:48.879Z,7.72
2023-05-09T15:50:16.221Z,8.13
2023-05-09T15:52:43.509Z,8.50
2023-05-09T15:55:10.849Z,6.28
2023-05-09T15:57:38.087Z,9.65
2023-05-09T16:00:05.600Z,10.68
2023-05-09T16:02:39.571Z,10.25
2023-05-09T16:05:06.796Z,10.23
2023-05-09T16:07:35.799Z,8.52
2023-05-09T16:10:03.243Z,8.93
2023-05-09T16:12:32.757Z,11.73
2023-05-09T16:15:00.114Z,12.15
2023-05-09T16:17:27.278Z,7.65
2023-05-09T16:19:54.851Z,8.32
2023-05-09T16:22:21.908Z,10.20
2023-05-09T16:24:49.231Z,7.80
2023-05-09T16:27:16.478Z,8.32
2023-05-09T16:29:43.706Z,6.57
2023-05-09T16:32:10.807Z,9.93
2023-05-09T16:34:37.958Z,6.20
2023-05-09T16:37:05.140Z,8.40
2023-05-09T16:39:32.516Z,8.63
2023-05-09T16:41:59.708Z,7.45
2023-05-09T16:44:26.998Z,5.70
2023-05-09T16:46:54.257Z,8.88
2023-05-09T16:49:21.440Z,4.28
2023-05-09T16:51:48.597Z,4.43
2023-05-09T16:54:15.761Z,5.55
2023-05-09T16:56:42.595Z,3.85
2023-05-09T16:59:09.530Z,3.63
2023-05-09T17:01:36.455Z,5.55
2023-05-09T17:04:06.573Z,3.80
2023-05-09T17:06:36.883Z,3.70
2023-05-09T17:09:03.938Z,4.80
2023-05-09T17:11:30.850Z,4.10
2023-05-09T17:13:57.744Z,6.75
2023-05-09T17:16:24.596Z,4.82
2023-05-09T17:18:52.078Z,6.75
2023-05-09T17:21:20.267Z,5.22
2023-05-09T17:23:47.251Z,5.68
2023-05-09T17:26:14.197Z,4.53
2023-05-09T17:28:41.181Z,4.88
2023-05-09T17:31:08.174Z,5.50
2023-05-09T17:33:35.116Z,6.53
2023-05-09T17:36:02.668Z,4.90
2023-05-09T17:38:30.103Z,6.25
2023-05-09T17:40:57.035Z,5.05
2023-05-09T17:43:24.171Z,7.68
2023-05-09T17:45:52.388Z,7.00
2023-05-09T17:48:19.381Z,5.30
2023-05-09T17:50:46.306Z,3.50
2023-05-09T17:53:13.893Z,7.75
2023-05-09T17:55:42.427Z,4.07
2023-05-09T17:58:09.481Z,7.07
2023-05-09T18:00:36.609Z,4.60
2023-05-09T18:03:04.154Z,5.50
2023-05-09T18:05:31.104Z,4.28
2023-05-09T18:08:00.844Z,6.10
2023-05-09T18:10:28.667Z,7.43
2023-05-09T18:12:56.166Z,8.48
2023-05-09T18:15:23.086Z,6.88
2023-05-09T18:17:50.315Z,6.93
2023-05-09T18:20:17.509Z,8.88
2023-05-09T18:23:03.615Z,9.52
2023-05-09T18:25:49.849Z,9.85
2023-05-09T18:28:40.845Z,7.20
2023-05-09T18:31:26.564Z,6.35
2023-05-09T18:34:12.255Z,8.60
2023-05-09T18:36:58.088Z,9.57
2023-05-09T18:39:43.816Z,9.80
2023-05-09T18:42:29.766Z,9.93
2023-05-09T18:45:15.809Z,9.70
2023-05-09T18:48:02.762Z,11.60
2023-05-09T18:50:52.213Z,9.07
2023-05-09T18:53:37.947Z,9.50
2023-05-09T18:56:23.157Z,9.52
2023-05-09T18:59:12.023Z,10.52
2023-05-09T19:01:57.818Z,12.13
2023-05-09T19:04:46.051Z,12.95
2023-05-09T19:07:31.743Z,10.30
2023-05-09T19:10:18.492Z,11.65
2023-05-09T19:13:06.079Z,13.18
2023-05-09T19:15:51.735Z,13.82
2023-05-09T19:18:37.213Z,14.48
2023-05-09T19:21:23.570Z,13.05
2023-05-09T19:24:09.414Z,15.65
2023-05-09T19:26:54.759Z,15.10
2023-05-09T19:29:40.288Z,15.77
2023-05-09T19:32:25.854Z,14.93
2023-05-09T19:35:11.490Z,16.13
2023-05-09T19:37:57.245Z,15.15
2023-05-09T19:40:42.470Z,16.25
2023-05-09T19:43:27.997Z,15.80
2023-05-09T19:46:13.654Z,16.63
2023-05-09T19:51:44.999Z,20.70
2023-05-09T19:54:31.316Z,14.88
2023-05-09T19:57:17.743Z,14.82
2023-05-09T20:00:03.295Z,20.45
2023-05-09T20:02:49.843Z,16.30
2023-05-09T20:05:35.735Z,17.08
2023-05-09T20:08:21.539Z,20.67
2023-05-09T20:13:53.615Z,20.80
2023-05-09T20:16:38.959Z,22.52
2023-05-09T20:19:24.403Z,25.70
2023-05-09T20:21:51.341Z,17.00
2023-05-09T20:24:18.154Z,19.77
2023-05-09T20:26:45.061Z,20.08
2023-05-09T20:29:11.925Z,24.85
2023-05-09T20:31:39.084Z,21.63
2023-05-09T20:34:05.985Z,26.17
2023-05-09T20:36:32.920Z,29.55
2023-05-09T20:38:59.713Z,23.23
2023-05-09T20:41:26.672Z,21.92
2023-05-09T20:43:53.547Z,22.73
2023-05-09T20:46:20.601Z,20.45
2023-05-09T20:48:48.471Z,21.30
2023-05-09T20:51:15.379Z,20.13
2023-05-09T20:53:42.157Z,16.77
2023-05-09T20:56:09.030Z,16.77
2023-05-09T20:58:35.958Z,19.55
2023-05-09T21:01:02.897Z,14.18
2023-05-09T21:03:29.789Z,15.38
2023-05-09T21:05:57.948Z,20.60
2023-05-09T21:08:25.731Z,18.10
2023-05-09T21:10:52.826Z,24.00
2023-05-09T21:13:19.782Z,18.13
2023-05-09T21:15:50.312Z,25.02
2023-05-09T21:18:17.428Z,19.90
2023-05-09T21:20:45.403Z,23.42
2023-05-09T21:23:12.400Z,22.92
2023-05-09T21:25:39.266Z,20.40
2023-05-09T21:28:06.218Z,25.17
2023-05-09T21:30:33.024Z,29.83
2023-05-09T21:33:00.043Z,24.02
2023-05-09T21:35:26.931Z,27.17
2023-05-09T21:37:53.796Z,31.23
2023-05-09T21:40:20.624Z,27.80
2023-05-09T21:42:47.954Z,30.88
2023-05-09T21:45:14.858Z,33.50
2023-05-09T21:47:41.825Z,32.70
2023-05-09T21:50:09.219Z,36.58
2023-05-09T21:52:36.115Z,29.30
2023-05-09T21:55:03.024Z,32.15
2023-05-09T21:57:30.012Z,27.75
2023-05-09T22:00:01.118Z,32.58
2023-05-09T22:02:31.766Z,32.58
2023-05-09T22:04:58.757Z,25.42
2023-05-09T22:07:25.663Z,29.23
2023-05-09T22:09:53.034Z,26.77
2023-05-09T22:12:19.883Z,26.60
2023-05-09T22:14:55.761Z,25.63
2023-05-09T22:17:24.522Z,25.98
2023-05-09T22:19:52.024Z,22.75
2023-05-09T22:22:19.233Z,31.85
2023-05-09T22:25:04.992Z,32.28
2023-05-09T22:27:50.291Z,27.42
2023-05-09T22:30:35.865Z,28.13
2023-05-09T22:33:21.241Z,32.45
2023-05-09T22:36:06.590Z,25.85
2023-05-09T22:38:51.978Z,29.33
2023-05-09T22:41:19.195Z,30.67
2023-05-09T22:43:46.281Z,26.40
2023-05-09T22:46:13.120Z,23.52
2023-05-09T22:48:40.148Z,27.52
2023-05-09T22:51:06.942Z,27.02
2023-05-09T22:53:33.809Z,35.35
2023-05-09T22:56:00.722Z,26.55
2023-05-09T22:58:27.616Z,27.70
2023-05-09T23:00:54.701Z,38.20
2023-05-09T23:03:22.109Z,30.15
2023-05-09T23:05:49.027Z,37.33
2023-05-09T23:08:16.150Z,39.05
2023-05-09T23:10:43.059Z,40.95
2023-05-09T23:13:10.106Z,44.03
2023-05-09T23:15:36.980Z,42.72
2023-05-09T23:18:04.399Z,42.05
2023-05-09T23:20:31.246Z,43.42
2023-05-09T23:22:58.331Z,42.33
2023-05-09T23:25:25.397Z,40.58
2023-05-09T23:27:52.561Z,46.90
2023-05-09T23:30:19.349Z,58.70
2023-05-09T23:32:46.410Z,49.92
2023-05-09T23:35:13.381Z,53.63
2023-05-09T23:37:40.308Z,55.13
2023-05-09T23:40:07.732Z,54.53
2023-05-09T23:42:34.613Z,52.35
2023-05-09T23:45:01.413Z,53.45
2023-05-09T23:47:28.363Z,48.20
2023-05-09T23:49:55.197Z,50.38
2023-05-09T23:52:22.133Z,48.70
2023-05-09T23:54:49.087Z,56.55
2023-05-09T23:57:15.903Z,58.35
2023-05-09T23:59:42.830Z,51.67
